sensor_id;sensor_type;location;lat;lon;timestamp;P1;durP1;ratioP1;P2;durP2;ratioP2
15488;SDS011;7846;48.830;9.116;2022-12-18T00:01:03;42.72;;;21.38;;
15488;SDS011;7846;48.830;9.116;2022-12-18T00:03:37;38.10;;;21.00;;
15488;SDS011;7846;48.830;9.116;2022-12-18T00:06:03;37.63;;;21.05;;
15488;SDS011;7846;48.830;9.116;2022-12-18T00:08:28;35.53;;;19.97;;
15488;SDS011;7846;48.830;9.116;2022-12-18T00:10:54;36.80;;;20.67;;
15488;SDS011;7846;48.830;9.116;2022-12-18T00:13:21;35.75;;;19.83;;
15488;SDS011;7846;48.830;9.116;2022-12-18T00:15:46;35.20;;;19.87;;
15488;SDS011;7846;48.830;9.116;2022-12-18T00:18:15;41.63;;;19.60;;
15488;SDS011;7846;48.830;9.116;2022-12-18T00:20:41;35.97;;;19.60;;
15488;SDS011;7846;48.830;9.116;2022-12-18T00:23:06;35.97;;;19.50;;
15488;SDS011;7846;48.830;9.116;2022-12-18T00:25:33;43.30;;;20.33;;
15488;SDS011;7846;48.830;9.116;2022-12-18T00:27:59;36.72;;;19.25;;
15488;SDS011;7846;48.830;9.116;2022-12-18T00:30:25;33.43;;;20.00;;
15488;SDS011;7846;48.830;9.116;2022-12-18T00:32:50;36.00;;;20.37;;
15488;SDS011;7846;48.830;9.116;2022-12-18T00:35:17;37.97;;;20.42;;
15488;SDS011;7846;48.830;9.116;2022-12-18T00:37:43;37.10;;;19.60;;
15488;SDS011;7846;48.830;9.116;2022-12-18T00:40:09;34.08;;;19.85;;
15488;SDS011;7846;48.830;9.116;2022-12-18T00:42:35;36.30;;;18.80;;
15488;SDS011;7846;48.830;9.116;2022-12-18T00:45:19;33.53;;;18.80;;
15488;SDS011;7846;48.830;9.116;2022-12-18T00:47:44;35.20;;;19.50;;
15488;SDS011;7846;48.830;9.116;2022-12-18T00:50:10;38.17;;;20.47;;
15488;SDS011;7846;48.830;9.116;2022-12-18T00:52:35;37.77;;;20.37;;
15488;SDS011;7846;48.830;9.116;2022-12-18T00:55:01;39.57;;;20.13;;
15488;SDS011;7846;48.830;9.116;2022-12-18T00:57:26;36.23;;;20.13;;
15488;SDS011;7846;48.830;9.116;2022-12-18T00:59:55;33.90;;;19.38;;
15488;SDS011;7846;48.830;9.116;2022-12-18T01:02:22;38.17;;;19.55;;
15488;SDS011;7846;48.830;9.116;2022-12-18T01:04:47;35.70;;;19.80;;
15488;SDS011;7846;48.830;9.116;2022-12-18T01:07:14;36.72;;;19.33;;
15488;SDS011;7846;48.830;9.116;2022-12-18T01:09:40;36.40;;;19.63;;
15488;SDS011;7846;48.830;9.116;2022-12-18T01:12:09;31.48;;;18.83;;
15488;SDS011;7846;48.830;9.116;2022-12-18T01:14:36;34.38;;;19.20;;
15488;SDS011;7846;48.830;9.116;2022-12-18T01:17:02;33.95;;;19.63;;
15488;SDS011;7846;48.830;9.116;2022-12-18T01:19:29;35.45;;;19.70;;
15488;SDS011;7846;48.830;9.116;2022-12-18T01:21:54;31.00;;;18.87;;
15488;SDS011;7846;48.830;9.116;2022-12-18T01:24:20;34.80;;;18.33;;
15488;SDS011;7846;48.830;9.116;2022-12-18T01:26:47;35.63;;;19.42;;
15488;SDS011;7846;48.830;9.116;2022-12-18T01:29:12;33.30;;;19.93;;
15488;SDS011;7846;48.830;9.116;2022-12-18T01:31:40;34.50;;;19.88;;
15488;SDS011;7846;48.830;9.116;2022-12-18T01:34:05;32.63;;;18.50;;
15488;SDS011;7846;48.830;9.116;2022-12-18T01:36:32;37.07;;;18.87;;
15488;SDS011;7846;48.830;9.116;2022-12-18T01:38:59;31.73;;;18.48;;
15488;SDS011;7846;48.830;9.116;2022-12-18T01:41:26;32.72;;;18.45;;
15488;SDS011;7846;48.830;9.116;2022-12-18T01:47:18;35.88;;;18.38;;
15488;SDS011;7846;48.830;9.116;2022-12-18T01:49:48;34.08;;;18.13;;
15488;SDS011;7846;48.830;9.116;2022-12-18T01:52:13;31.87;;;17.60;;
15488;SDS011;7846;48.830;9.116;2022-12-18T01:54:41;31.52;;;18.48;;
15488;SDS011;7846;48.830;9.116;2022-12-18T01:57:06;36.07;;;19.03;;
15488;SDS011;7846;48.830;9.116;2022-12-18T01:59:32;31.83;;;17.90;;
15488;SDS011;7846;48.830;9.116;2022-12-18T02:01:59;33.08;;;18.25;;
15488;SDS011;7846;48.830;9.116;2022-12-18T02:04:26;33.17;;;18.40;;
15488;SDS011;7846;48.830;9.116;2022-12-18T02:07:14;33.13;;;18.00;;
15488;SDS011;7846;48.830;9.116;2022-12-18T02:19:15;35.42;;;17.67;;
15488;SDS011;7846;48.830;9.116;2022-12-18T02:22:10;30.27;;;16.17;;
15488;SDS011;7846;48.830;9.116;2022-12-18T02:24:54;33.33;;;18.10;;
15488;SDS011;7846;48.830;9.116;2022-12-18T02:27:44;30.65;;;17.52;;
15488;SDS011;7846;48.830;9.116;2022-12-18T02:30:12;32.15;;;18.33;;
15488;SDS011;7846;48.830;9.116;2022-12-18T02:32:42;30.90;;;17.87;;
15488;SDS011;7846;48.830;9.116;2022-12-18T02:35:12;33.28;;;18.15;;
15488;SDS011;7846;48.830;9.116;2022-12-18T02:37:42;33.42;;;19.00;;
15488;SDS011;7846;48.830;9.116;2022-12-18T02:40:10;33.25;;;20.00;;
15488;SDS011;7846;48.830;9.116;2022-12-18T02:42:38;34.33;;;19.33;;
15488;SDS011;7846;48.830;9.116;2022-12-18T02:45:04;34.00;;;19.60;;
15488;SDS011;7846;48.830;9.116;2022-12-18T02:47:31;35.75;;;18.83;;
15488;SDS011;7846;48.830;9.116;2022-12-18T02:50:05;31.25;;;17.60;;
15488;SDS011;7846;48.830;9.116;2022-12-18T02:52:52;32.88;;;18.40;;
15488;SDS011;7846;48.830;9.116;2022-12-18T02:58:05;34.83;;;18.00;;
15488;SDS011;7846;48.830;9.116;2022-12-18T03:00:38;36.97;;;19.13;;
15488;SDS011;7846;48.830;9.116;2022-12-18T03:03:13;36.25;;;18.13;;
15488;SDS011;7846;48.830;9.116;2022-12-18T03:05:50;29.92;;;17.42;;
15488;SDS011;7846;48.830;9.116;2022-12-18T03:08:31;30.25;;;16.85;;
15488;SDS011;7846;48.830;9.116;2022-12-18T03:11:03;31.80;;;17.23;;
15488;SDS011;7846;48.830;9.116;2022-12-18T03:13:33;32.15;;;18.27;;
15488;SDS011;7846;48.830;9.116;2022-12-18T03:16:02;31.88;;;17.58;;
15488;SDS011;7846;48.830;9.116;2022-12-18T03:18:35;30.35;;;18.17;;
15488;SDS011;7846;48.830;9.116;2022-12-18T03:21:07;29.25;;;16.88;;
15488;SDS011;7846;48.830;9.116;2022-12-18T03:23:36;28.33;;;17.42;;
15488;SDS011;7846;48.830;9.116;2022-12-18T03:26:07;30.13;;;16.30;;
15488;SDS011;7846;48.830;9.116;2022-12-18T03:28:40;29.80;;;17.17;;
15488;SDS011;7846;48.830;9.116;2022-12-18T03:31:11;31.08;;;16.75;;
15488;SDS011;7846;48.830;9.116;2022-12-18T03:33:54;32.00;;;16.95;;
15488;SDS011;7846;48.830;9.116;2022-12-18T03:36:22;30.45;;;16.75;;
15488;SDS011;7846;48.830;9.116;2022-12-18T03:38:48;30.57;;;16.57;;
15488;SDS011;7846;48.830;9.116;2022-12-18T03:46:39;30.70;;;17.23;;
15488;SDS011;7846;48.830;9.116;2022-12-18T03:49:22;30.13;;;16.45;;
15488;SDS011;7846;48.830;9.116;2022-12-18T03:51:53;26.75;;;15.30;;
15488;SDS011;7846;48.830;9.116;2022-12-18T03:54:26;27.75;;;15.23;;
15488;SDS011;7846;48.830;9.116;2022-12-18T03:57:02;31.88;;;17.05;;
15488;SDS011;7846;48.830;9.116;2022-12-18T03:59:33;30.85;;;16.27;;
15488;SDS011;7846;48.830;9.116;2022-12-18T04:02:01;32.90;;;17.67;;
15488;SDS011;7846;48.830;9.116;2022-12-18T04:04:31;28.25;;;15.95;;
15488;SDS011;7846;48.830;9.116;2022-12-18T04:06:59;28.88;;;16.10;;
15488;SDS011;7846;48.830;9.116;2022-12-18T04:09:25;28.30;;;16.10;;
15488;SDS011;7846;48.830;9.116;2022-12-18T04:11:52;30.10;;;16.65;;
15488;SDS011;7846;48.830;9.116;2022-12-18T04:14:17;30.03;;;16.27;;
15488;SDS011;7846;48.830;9.116;2022-12-18T04:16:46;30.42;;;16.90;;
15488;SDS011;7846;48.830;9.116;2022-12-18T04:19:11;28.00;;;15.90;;
15488;SDS011;7846;48.830;9.116;2022-12-18T04:21:38;27.60;;;15.98;;
15488;SDS011;7846;48.830;9.116;2022-12-18T04:24:03;25.17;;;15.27;;
15488;SDS011;7846;48.830;9.116;2022-12-18T04:26:28;29.43;;;15.50;;
15488;SDS011;7846;48.830;9.116;2022-12-18T04:28:55;27.73;;;15.73;;
15488;SDS011;7846;48.830;9.116;2022-12-18T04:31:21;24.77;;;15.50;;
15488;SDS011;7846;48.830;9.116;2022-12-18T04:33:47;27.60;;;15.63;;
15488;SDS011;7846;48.830;9.116;2022-12-18T04:36:13;25.67;;;14.93;;
15488;SDS011;7846;48.830;9.116;2022-12-18T04:38:38;28.87;;;15.67;;
15488;SDS011;7846;48.830;9.116;2022-12-18T04:41:04;26.40;;;14.50;;
15488;SDS011;7846;48.830;9.116;2022-12-18T04:43:29;27.87;;;15.20;;
15488;SDS011;7846;48.830;9.116;2022-12-18T04:46:05;25.77;;;15.03;;
15488;SDS011;7846;48.830;9.116;2022-12-18T04:48:31;23.83;;;14.45;;
15488;SDS011;7846;48.830;9.116;2022-12-18T04:50:57;23.80;;;14.23;;
15488;SDS011;7846;48.830;9.116;2022-12-18T04:53:22;24.30;;;14.53;;
15488;SDS011;7846;48.830;9.116;2022-12-18T04:55:50;24.73;;;14.70;;
15488;SDS011;7846;48.830;9.116;2022-12-18T04:58:17;22.20;;;14.20;;
15488;SDS011;7846;48.830;9.116;2022-12-18T05:00:42;26.83;;;14.57;;
15488;SDS011;7846;48.830;9.116;2022-12-18T05:03:08;26.27;;;15.13;;
15488;SDS011;7846;48.830;9.116;2022-12-18T05:05:34;26.03;;;15.53;;
15488;SDS011;7846;48.830;9.116;2022-12-18T05:08:00;24.58;;;14.73;;
15488;SDS011;7846;48.830;9.116;2022-12-18T05:10:25;23.60;;;14.33;;
15488;SDS011;7846;48.830;9.116;2022-12-18T05:12:51;28.20;;;14.57;;
15488;SDS011;7846;48.830;9.116;2022-12-18T05:15:32;24.90;;;13.77;;
15488;SDS011;7846;48.830;9.116;2022-12-18T05:17:58;23.83;;;13.70;;
15488;SDS011;7846;48.830;9.116;2022-12-18T05:20:24;22.33;;;13.60;;
15488;SDS011;7846;48.830;9.116;2022-12-18T05:22:51;25.98;;;15.02;;
15488;SDS011;7846;48.830;9.116;2022-12-18T05:25:18;24.95;;;14.95;;
15488;SDS011;7846;48.830;9.116;2022-12-18T05:27:44;24.45;;;13.88;;
15488;SDS011;7846;48.830;9.116;2022-12-18T05:30:10;24.90;;;14.23;;
15488;SDS011;7846;48.830;9.116;2022-12-18T05:32:36;24.05;;;13.82;;
15488;SDS011;7846;48.830;9.116;2022-12-18T05:35:02;24.77;;;14.38;;
15488;SDS011;7846;48.830;9.116;2022-12-18T05:37:29;22.00;;;13.43;;
15488;SDS011;7846;48.830;9.116;2022-12-18T05:39:55;25.60;;;13.93;;
15488;SDS011;7846;48.830;9.116;2022-12-18T05:42:21;22.23;;;14.00;;
15488;SDS011;7846;48.830;9.116;2022-12-18T05:44:47;24.33;;;14.13;;
15488;SDS011;7846;48.830;9.116;2022-12-18T05:47:14;22.57;;;13.60;;
15488;SDS011;7846;48.830;9.116;2022-12-18T05:49:39;21.23;;;13.55;;
15488;SDS011;7846;48.830;9.116;2022-12-18T05:52:05;21.47;;;13.50;;
15488;SDS011;7846;48.830;9.116;2022-12-18T05:54:31;23.63;;;12.93;;
15488;SDS011;7846;48.830;9.116;2022-12-18T05:56:57;19.83;;;12.83;;
15488;SDS011;7846;48.830;9.116;2022-12-18T05:59:23;20.75;;;12.95;;
15488;SDS011;7846;48.830;9.116;2022-12-18T06:01:49;22.43;;;13.80;;
15488;SDS011;7846;48.830;9.116;2022-12-18T06:04:15;22.63;;;13.15;;
15488;SDS011;7846;48.830;9.116;2022-12-18T06:06:42;23.50;;;14.38;;
15488;SDS011;7846;48.830;9.116;2022-12-18T06:09:08;21.50;;;13.27;;
15488;SDS011;7846;48.830;9.116;2022-12-18T06:11:36;22.92;;;13.60;;
15488;SDS011;7846;48.830;9.116;2022-12-18T06:14:03;22.60;;;13.52;;
15488;SDS011;7846;48.830;9.116;2022-12-18T06:16:29;21.40;;;13.35;;
15488;SDS011;7846;48.830;9.116;2022-12-18T06:18:58;23.77;;;14.30;;
15488;SDS011;7846;48.830;9.116;2022-12-18T06:21:25;21.88;;;13.43;;
15488;SDS011;7846;48.830;9.116;2022-12-18T06:23:51;20.00;;;13.00;;
15488;SDS011;7846;48.830;9.116;2022-12-18T06:26:17;20.50;;;13.47;;
15488;SDS011;7846;48.830;9.116;2022-12-18T06:28:43;22.73;;;14.17;;
15488;SDS011;7846;48.830;9.116;2022-12-18T06:31:08;23.67;;;14.90;;
15488;SDS011;7846;48.830;9.116;2022-12-18T06:33:37;22.73;;;13.73;;
15488;SDS011;7846;48.830;9.116;2022-12-18T06:36:07;24.27;;;13.98;;
15488;SDS011;7846;48.830;9.116;2022-12-18T06:38:34;24.35;;;13.93;;
15488;SDS011;7846;48.830;9.116;2022-12-18T06:41:08;22.90;;;14.40;;
15488;SDS011;7846;48.830;9.116;2022-12-18T06:43:36;21.10;;;13.43;;
15488;SDS011;7846;48.830;9.116;2022-12-18T06:46:02;22.30;;;13.83;;
15488;SDS011;7846;48.830;9.116;2022-12-18T06:48:29;23.42;;;14.20;;
15488;SDS011;7846;48.830;9.116;2022-12-18T06:50:55;24.30;;;13.45;;
15488;SDS011;7846;48.830;9.116;2022-12-18T06:53:21;21.17;;;13.48;;
15488;SDS011;7846;48.830;9.116;2022-12-18T06:55:47;23.27;;;14.23;;
15488;SDS011;7846;48.830;9.116;2022-12-18T06:58:14;23.80;;;13.77;;
15488;SDS011;7846;48.830;9.116;2022-12-18T07:00:39;21.00;;;12.90;;
15488;SDS011;7846;48.830;9.116;2022-12-18T07:03:07;22.58;;;13.18;;
15488;SDS011;7846;48.830;9.116;2022-12-18T07:05:32;23.47;;;13.90;;
15488;SDS011;7846;48.830;9.116;2022-12-18T07:07:58;20.17;;;12.67;;
15488;SDS011;7846;48.830;9.116;2022-12-18T07:10:23;24.10;;;13.63;;
15488;SDS011;7846;48.830;9.116;2022-12-18T07:12:49;22.17;;;12.67;;
15488;SDS011;7846;48.830;9.116;2022-12-18T07:15:14;21.27;;;12.90;;
15488;SDS011;7846;48.830;9.116;2022-12-18T07:17:40;19.47;;;12.50;;
15488;SDS011;7846;48.830;9.116;2022-12-18T07:20:05;19.80;;;13.00;;
15488;SDS011;7846;48.830;9.116;2022-12-18T07:22:31;21.90;;;13.00;;
15488;SDS011;7846;48.830;9.116;2022-12-18T07:24:56;22.93;;;12.33;;
15488;SDS011;7846;48.830;9.116;2022-12-18T07:27:22;19.40;;;12.33;;
15488;SDS011;7846;48.830;9.116;2022-12-18T07:29:50;18.05;;;11.95;;
15488;SDS011;7846;48.830;9.116;2022-12-18T07:32:15;21.00;;;12.37;;
15488;SDS011;7846;48.830;9.116;2022-12-18T07:34:41;22.80;;;13.50;;
15488;SDS011;7846;48.830;9.116;2022-12-18T07:37:06;23.20;;;12.67;;
15488;SDS011;7846;48.830;9.116;2022-12-18T07:39:31;20.40;;;12.13;;
15488;SDS011;7846;48.830;9.116;2022-12-18T07:41:58;22.37;;;12.90;;
15488;SDS011;7846;48.830;9.116;2022-12-18T07:44:43;21.33;;;12.85;;
15488;SDS011;7846;48.830;9.116;2022-12-18T07:47:09;18.93;;;12.97;;
15488;SDS011;7846;48.830;9.116;2022-12-18T07:49:34;22.13;;;13.60;;
15488;SDS011;7846;48.830;9.116;2022-12-18T07:51:59;23.10;;;13.30;;
15488;SDS011;7846;48.830;9.116;2022-12-18T07:54:25;21.60;;;13.00;;
15488;SDS011;7846;48.830;9.116;2022-12-18T07:56:51;21.97;;;12.77;;
15488;SDS011;7846;48.830;9.116;2022-12-18T07:59:17;20.52;;;13.48;;
15488;SDS011;7846;48.830;9.116;2022-12-18T08:01:43;23.63;;;13.68;;
15488;SDS011;7846;48.830;9.116;2022-12-18T08:04:09;20.92;;;14.00;;
15488;SDS011;7846;48.830;9.116;2022-12-18T08:06:35;23.77;;;14.40;;
15488;SDS011;7846;48.830;9.116;2022-12-18T08:09:00;30.03;;;22.30;;
15488;SDS011;7846;48.830;9.116;2022-12-18T08:11:26;26.23;;;17.27;;
15488;SDS011;7846;48.830;9.116;2022-12-18T08:13:54;27.92;;;16.10;;
15488;SDS011;7846;48.830;9.116;2022-12-18T08:16:22;23.38;;;15.23;;
15488;SDS011;7846;48.830;9.116;2022-12-18T08:18:48;24.83;;;15.35;;
15488;SDS011;7846;48.830;9.116;2022-12-18T08:21:17;23.17;;;14.77;;
15488;SDS011;7846;48.830;9.116;2022-12-18T08:23:55;24.25;;;15.38;;
15488;SDS011;7846;48.830;9.116;2022-12-18T08:26:22;26.17;;;15.88;;
15488;SDS011;7846;48.830;9.116;2022-12-18T08:28:48;24.23;;;15.43;;
15488;SDS011;7846;48.830;9.116;2022-12-18T08:31:16;25.20;;;15.48;;
15488;SDS011;7846;48.830;9.116;2022-12-18T08:33:43;22.98;;;15.00;;
15488;SDS011;7846;48.830;9.116;2022-12-18T08:36:09;28.20;;;16.53;;
15488;SDS011;7846;48.830;9.116;2022-12-18T08:38:35;24.75;;;16.13;;
15488;SDS011;7846;48.830;9.116;2022-12-18T08:41:02;26.73;;;16.23;;
15488;SDS011;7846;48.830;9.116;2022-12-18T08:43:29;24.55;;;16.05;;
15488;SDS011;7846;48.830;9.116;2022-12-18T08:46:13;26.02;;;16.33;;
15488;SDS011;7846;48.830;9.116;2022-12-18T08:48:39;26.03;;;17.70;;
15488;SDS011;7846;48.830;9.116;2022-12-18T08:51:06;25.60;;;16.85;;
15488;SDS011;7846;48.830;9.116;2022-12-18T08:53:37;25.25;;;17.33;;
15488;SDS011;7846;48.830;9.116;2022-12-18T08:56:03;27.33;;;17.17;;
15488;SDS011;7846;48.830;9.116;2022-12-18T08:58:32;26.67;;;17.48;;
15488;SDS011;7846;48.830;9.116;2022-12-18T09:01:06;26.25;;;16.77;;
15488;SDS011;7846;48.830;9.116;2022-12-18T09:03:36;24.70;;;16.85;;
15488;SDS011;7846;48.830;9.116;2022-12-18T09:06:04;29.33;;;18.27;;
15488;SDS011;7846;48.830;9.116;2022-12-18T09:08:30;29.25;;;18.70;;
15488;SDS011;7846;48.830;9.116;2022-12-18T09:11:01;28.17;;;17.55;;
15488;SDS011;7846;48.830;9.116;2022-12-18T09:13:27;28.00;;;18.43;;
15488;SDS011;7846;48.830;9.116;2022-12-18T09:15:53;28.23;;;17.83;;
15488;SDS011;7846;48.830;9.116;2022-12-18T09:18:21;29.38;;;18.30;;
15488;SDS011;7846;48.830;9.116;2022-12-18T09:20:48;26.65;;;17.58;;
15488;SDS011;7846;48.830;9.116;2022-12-18T09:23:16;30.58;;;17.63;;
15488;SDS011;7846;48.830;9.116;2022-12-18T09:25:42;26.38;;;17.35;;
15488;SDS011;7846;48.830;9.116;2022-12-18T09:28:11;26.52;;;17.02;;
15488;SDS011;7846;48.830;9.116;2022-12-18T09:30:49;25.88;;;17.33;;
15488;SDS011;7846;48.830;9.116;2022-12-18T09:33:15;26.52;;;17.38;;
15488;SDS011;7846;48.830;9.116;2022-12-18T09:35:42;26.13;;;16.15;;
15488;SDS011;7846;48.830;9.116;2022-12-18T09:38:13;25.40;;;17.50;;
15488;SDS011;7846;48.830;9.116;2022-12-18T09:40:42;27.17;;;16.58;;
15488;SDS011;7846;48.830;9.116;2022-12-18T09:43:14;27.50;;;18.15;;
15488;SDS011;7846;48.830;9.116;2022-12-18T09:45:45;27.92;;;16.85;;
15488;SDS011;7846;48.830;9.116;2022-12-18T09:48:22;28.17;;;17.63;;
15488;SDS011;7846;48.830;9.116;2022-12-18T09:50:52;25.80;;;16.88;;
15488;SDS011;7846;48.830;9.116;2022-12-18T09:53:26;25.02;;;17.40;;
15488;SDS011;7846;48.830;9.116;2022-12-18T09:55:57;26.10;;;17.05;;
15488;SDS011;7846;48.830;9.116;2022-12-18T10:01:22;30.80;;;18.67;;
15488;SDS011;7846;48.830;9.116;2022-12-18T10:03:49;25.45;;;17.63;;
15488;SDS011;7846;48.830;9.116;2022-12-18T10:06:20;27.35;;;18.10;;
15488;SDS011;7846;48.830;9.116;2022-12-18T10:08:57;27.65;;;17.17;;
15488;SDS011;7846;48.830;9.116;2022-12-18T10:11:40;25.70;;;16.38;;
15488;SDS011;7846;48.830;9.116;2022-12-18T10:17:17;29.45;;;18.27;;
15488;SDS011;7846;48.830;9.116;2022-12-18T10:20:02;30.35;;;17.77;;
15488;SDS011;7846;48.830;9.116;2022-12-18T10:25:28;26.27;;;17.45;;
15488;SDS011;7846;48.830;9.116;2022-12-18T10:28:13;25.83;;;16.93;;
15488;SDS011;7846;48.830;9.116;2022-12-18T10:30:40;26.25;;;17.05;;
15488;SDS011;7846;48.830;9.116;2022-12-18T10:33:11;28.08;;;18.48;;
15488;SDS011;7846;48.830;9.116;2022-12-18T10:35:41;25.97;;;17.47;;
15488;SDS011;7846;48.830;9.116;2022-12-18T10:43:32;26.67;;;17.10;;
15488;SDS011;7846;48.830;9.116;2022-12-18T10:49:17;27.10;;;17.17;;
15488;SDS011;7846;48.830;9.116;2022-12-18T10:51:36;26.03;;;17.00;;
15488;SDS011;7846;48.830;9.116;2022-12-18T10:54:03;27.33;;;17.50;;
15488;SDS011;7846;48.830;9.116;2022-12-18T10:56:34;24.63;;;17.23;;
15488;SDS011;7846;48.830;9.116;2022-12-18T10:59:02;25.67;;;17.43;;
15488;SDS011;7846;48.830;9.116;2022-12-18T11:04:30;25.20;;;17.03;;
15488;SDS011;7846;48.830;9.116;2022-12-18T11:07:03;25.63;;;16.70;;
15488;SDS011;7846;48.830;9.116;2022-12-18T11:09:39;25.50;;;16.90;;
15488;SDS011;7846;48.830;9.116;2022-12-18T11:19:56;25.40;;;16.50;;
15488;SDS011;7846;48.830;9.116;2022-12-18T11:22:33;25.77;;;17.87;;
15488;SDS011;7846;48.830;9.116;2022-12-18T11:25:04;28.10;;;17.73;;
15488;SDS011;7846;48.830;9.116;2022-12-18T11:27:50;24.97;;;17.80;;
15488;SDS011;7846;48.830;9.116;2022-12-18T11:30:25;23.77;;;16.70;;
15488;SDS011;7846;48.830;9.116;2022-12-18T11:35:53;25.07;;;17.90;;
15488;SDS011;7846;48.830;9.116;2022-12-18T11:40:58;22.90;;;15.97;;
15488;SDS011;7846;48.830;9.116;2022-12-18T11:43:48;27.27;;;17.23;;
15488;SDS011;7846;48.830;9.116;2022-12-18T11:46:30;25.13;;;16.27;;
15488;SDS011;7846;48.830;9.116;2022-12-18T11:49:12;24.17;;;15.90;;
15488;SDS011;7846;48.830;9.116;2022-12-18T11:51:48;25.47;;;15.80;;
15488;SDS011;7846;48.830;9.116;2022-12-18T11:54:22;22.23;;;14.97;;
15488;SDS011;7846;48.830;9.116;2022-12-18T11:56:54;24.83;;;15.63;;
15488;SDS011;7846;48.830;9.116;2022-12-18T12:11:01;23.17;;;15.37;;
15488;SDS011;7846;48.830;9.116;2022-12-18T12:16:34;21.30;;;14.30;;
15488;SDS011;7846;48.830;9.116;2022-12-18T12:27:39;24.00;;;15.17;;
15488;SDS011;7846;48.830;9.116;2022-12-18T12:30:16;21.37;;;13.63;;
15488;SDS011;7846;48.830;9.116;2022-12-18T12:33:07;20.97;;;13.87;;
15488;SDS011;7846;48.830;9.116;2022-12-18T12:36:12;21.67;;;14.57;;
15488;SDS011;7846;48.830;9.116;2022-12-18T12:38:51;20.47;;;14.27;;
15488;SDS011;7846;48.830;9.116;2022-12-18T12:41:22;22.93;;;15.07;;
15488;SDS011;7846;48.830;9.116;2022-12-18T12:44:13;22.27;;;14.57;;
15488;SDS011;7846;48.830;9.116;2022-12-18T12:46:43;21.30;;;14.73;;
15488;SDS011;7846;48.830;9.116;2022-12-18T12:49:10;20.73;;;13.77;;
15488;SDS011;7846;48.830;9.116;2022-12-18T12:51:41;21.30;;;14.80;;
15488;SDS011;7846;48.830;9.116;2022-12-18T12:54:14;21.73;;;15.03;;
15488;SDS011;7846;48.830;9.116;2022-12-18T12:56:47;21.67;;;15.97;;
15488;SDS011;7846;48.830;9.116;2022-12-18T13:07:54;24.67;;;16.27;;
15488;SDS011;7846;48.830;9.116;2022-12-18T13:10:42;24.03;;;16.83;;
15488;SDS011;7846;48.830;9.116;2022-12-18T13:13:08;21.60;;;15.10;;
15488;SDS011;7846;48.830;9.116;2022-12-18T13:15:48;19.83;;;14.43;;
15488;SDS011;7846;48.830;9.116;2022-12-18T13:18:28;22.37;;;15.33;;
15488;SDS011;7846;48.830;9.116;2022-12-18T13:21:04;19.80;;;15.20;;
15488;SDS011;7846;48.830;9.116;2022-12-18T13:23:42;21.40;;;14.73;;
15488;SDS011;7846;48.830;9.116;2022-12-18T13:28:50;23.10;;;15.57;;
15488;SDS011;7846;48.830;9.116;2022-12-18T13:34:24;21.13;;;14.47;;
15488;SDS011;7846;48.830;9.116;2022-12-18T13:36:52;20.80;;;14.30;;
15488;SDS011;7846;48.830;9.116;2022-12-18T13:41:50;21.07;;;14.13;;
15488;SDS011;7846;48.830;9.116;2022-12-18T13:47:01;23.40;;;15.07;;
15488;SDS011;7846;48.830;9.116;2022-12-18T13:49:40;23.77;;;15.70;;
15488;SDS011;7846;48.830;9.116;2022-12-18T13:52:41;20.43;;;14.57;;
15488;SDS011;7846;48.830;9.116;2022-12-18T13:55:02;24.80;;;17.20;;
15488;SDS011;7846;48.830;9.116;2022-12-18T13:57:33;23.57;;;16.93;;
15488;SDS011;7846;48.830;9.116;2022-12-18T14:02:50;30.30;;;19.90;;
15488;SDS011;7846;48.830;9.116;2022-12-18T14:05:32;25.37;;;17.60;;
15488;SDS011;7846;48.830;9.116;2022-12-18T14:08:02;22.07;;;15.70;;
15488;SDS011;7846;48.830;9.116;2022-12-18T14:10:30;21.23;;;14.87;;
15488;SDS011;7846;48.830;9.116;2022-12-18T14:13:05;21.87;;;15.57;;
15488;SDS011;7846;48.830;9.116;2022-12-18T14:15:34;23.13;;;15.87;;
15488;SDS011;7846;48.830;9.116;2022-12-18T14:18:14;24.93;;;17.10;;
15488;SDS011;7846;48.830;9.116;2022-12-18T14:20:48;24.97;;;15.73;;
15488;SDS011;7846;48.830;9.116;2022-12-18T14:25:54;29.80;;;19.03;;
15488;SDS011;7846;48.830;9.116;2022-12-18T14:28:21;22.87;;;16.03;;
15488;SDS011;7846;48.830;9.116;2022-12-18T14:30:49;24.23;;;15.53;;
15488;SDS011;7846;48.830;9.116;2022-12-18T14:33:16;23.90;;;15.07;;
15488;SDS011;7846;48.830;9.116;2022-12-18T14:38:23;22.93;;;15.80;;
15488;SDS011;7846;48.830;9.116;2022-12-18T14:40:55;24.23;;;16.23;;
15488;SDS011;7846;48.830;9.116;2022-12-18T14:43:24;24.70;;;16.43;;
15488;SDS011;7846;48.830;9.116;2022-12-18T14:45:51;23.73;;;16.13;;
15488;SDS011;7846;48.830;9.116;2022-12-18T14:53:51;25.70;;;17.17;;
15488;SDS011;7846;48.830;9.116;2022-12-18T14:56:23;26.77;;;17.43;;
15488;SDS011;7846;48.830;9.116;2022-12-18T14:59:06;24.87;;;17.20;;
15488;SDS011;7846;48.830;9.116;2022-12-18T15:01:45;26.97;;;16.13;;
15488;SDS011;7846;48.830;9.116;2022-12-18T15:04:24;27.67;;;17.83;;
15488;SDS011;7846;48.830;9.116;2022-12-18T15:07:08;29.43;;;18.20;;
15488;SDS011;7846;48.830;9.116;2022-12-18T15:09:44;26.50;;;18.10;;
15488;SDS011;7846;48.830;9.116;2022-12-18T15:12:39;26.57;;;17.23;;
15488;SDS011;7846;48.830;9.116;2022-12-18T15:20:33;30.23;;;17.80;;
15488;SDS011;7846;48.830;9.116;2022-12-18T15:23:14;33.30;;;20.27;;
15488;SDS011;7846;48.830;9.116;2022-12-18T15:26:01;27.30;;;18.33;;
15488;SDS011;7846;48.830;9.116;2022-12-18T15:28:44;31.60;;;18.33;;
15488;SDS011;7846;48.830;9.116;2022-12-18T15:36:12;32.63;;;19.23;;
15488;SDS011;7846;48.830;9.116;2022-12-18T15:38:40;29.03;;;19.27;;
15488;SDS011;7846;48.830;9.116;2022-12-18T15:41:13;32.70;;;18.97;;
15488;SDS011;7846;48.830;9.116;2022-12-18T15:43:41;31.48;;;19.40;;
15488;SDS011;7846;48.830;9.116;2022-12-18T15:46:09;32.50;;;19.70;;
15488;SDS011;7846;48.830;9.116;2022-12-18T15:48:41;34.33;;;20.73;;
15488;SDS011;7846;48.830;9.116;2022-12-18T15:51:13;33.85;;;21.02;;
15488;SDS011;7846;48.830;9.116;2022-12-18T15:53:39;32.40;;;20.33;;
15488;SDS011;7846;48.830;9.116;2022-12-18T15:56:07;34.53;;;21.07;;
15488;SDS011;7846;48.830;9.116;2022-12-18T15:58:54;30.45;;;18.80;;
15488;SDS011;7846;48.830;9.116;2022-12-18T16:01:22;30.23;;;18.83;;
15488;SDS011;7846;48.830;9.116;2022-12-18T16:03:50;30.15;;;19.27;;
15488;SDS011;7846;48.830;9.116;2022-12-18T16:06:16;30.10;;;18.23;;
15488;SDS011;7846;48.830;9.116;2022-12-18T16:08:42;30.17;;;18.25;;
15488;SDS011;7846;48.830;9.116;2022-12-18T16:11:16;32.35;;;19.77;;
15488;SDS011;7846;48.830;9.116;2022-12-18T16:14:05;33.22;;;20.35;;
15488;SDS011;7846;48.830;9.116;2022-12-18T16:16:51;30.80;;;19.05;;
15488;SDS011;7846;48.830;9.116;2022-12-18T16:19:23;36.65;;;22.70;;
15488;SDS011;7846;48.830;9.116;2022-12-18T16:21:50;61.92;;;42.30;;
15488;SDS011;7846;48.830;9.116;2022-12-18T16:26:43;51.30;;;35.72;;
15488;SDS011;7846;48.830;9.116;2022-12-18T16:29:09;48.30;;;32.17;;
15488;SDS011;7846;48.830;9.116;2022-12-18T16:31:35;45.15;;;26.50;;
15488;SDS011;7846;48.830;9.116;2022-12-18T16:34:15;37.53;;;23.05;;
15488;SDS011;7846;48.830;9.116;2022-12-18T16:36:51;34.10;;;20.73;;
15488;SDS011;7846;48.830;9.116;2022-12-18T16:39:18;32.72;;;19.90;;
15488;SDS011;7846;48.830;9.116;2022-12-18T16:41:45;31.90;;;19.85;;
15488;SDS011;7846;48.830;9.116;2022-12-18T16:44:10;30.53;;;19.13;;
15488;SDS011;7846;48.830;9.116;2022-12-18T16:46:36;33.30;;;19.67;;
15488;SDS011;7846;48.830;9.116;2022-12-18T16:49:02;30.60;;;19.80;;
15488;SDS011;7846;48.830;9.116;2022-12-18T16:51:29;32.67;;;19.10;;
15488;SDS011;7846;48.830;9.116;2022-12-18T16:53:56;31.60;;;20.13;;